sensor_id;sensor_type;location;lat;lon;timestamp;P1;durP1;ratioP1;P2;durP2;ratioP2
51216;SDS011;37283;49.760;8.648;2023-05-07T00:00:17;4.68;;;2.00;;
51216;SDS011;37283;49.760;8.648;2023-05-07T00:02:45;3.60;;;1.92;;
51216;SDS011;37283;49.760;8.648;2023-05-07T00:05:12;5.85;;;1.80;;
51216;SDS011;37283;49.760;8.648;2023-05-07T00:07:39;4.35;;;2.00;;
51216;SDS011;37283;49.760;8.648;2023-05-07T00:10:06;3.53;;;1.80;;
51216;SDS011;37283;49.760;8.648;2023-05-07T00:12:33;4.45;;;2.40;;
51216;SDS011;37283;49.760;8.648;2023-05-07T00:15:01;4.28;;;2.15;;
51216;SDS011;37283;49.760;8.648;2023-05-07T00:17:29;4.35;;;2.28;;
51216;SDS011;37283;49.760;8.648;2023-05-07T00:19:56;3.08;;;1.88;;
51216;SDS011;37283;49.760;8.648;2023-05-07T00:22:26;4.45;;;1.70;;
51216;SDS011;37283;49.760;8.648;2023-05-07T00:24:52;3.63;;;1.95;;
51216;SDS011;37283;49.760;8.648;2023-05-07T00:27:19;5.75;;;2.17;;
51216;SDS011;37283;49.760;8.648;2023-05-07T00:29:45;5.47;;;1.95;;
51216;SDS011;37283;49.760;8.648;2023-05-07T00:32:12;4.65;;;1.98;;
51216;SDS011;37283;49.760;8.648;2023-05-07T00:34:38;4.05;;;1.95;;
51216;SDS011;37283;49.760;8.648;2023-05-07T00:37:05;3.97;;;1.83;;
51216;SDS011;37283;49.760;8.648;2023-05-07T00:39:33;3.88;;;2.00;;
51216;SDS011;37283;49.760;8.648;2023-05-07T00:42:00;5.60;;;2.40;;
51216;SDS011;37283;49.760;8.648;2023-05-07T00:44:26;5.18;;;2.15;;
51216;SDS011;37283;49.760;8.648;2023-05-07T00:46:55;5.53;;;2.10;;
51216;SDS011;37283;49.760;8.648;2023-05-07T00:49:22;5.07;;;1.90;;
51216;SDS011;37283;49.760;8.648;2023-05-07T00:51:48;5.35;;;2.25;;
51216;SDS011;37283;49.760;8.648;2023-05-07T00:54:16;5.50;;;2.08;;
51216;SDS011;37283;49.760;8.648;2023-05-07T00:56:42;5.93;;;2.10;;
51216;SDS011;37283;49.760;8.648;2023-05-07T00:59:11;5.85;;;1.90;;
51216;SDS011;37283;49.760;8.648;2023-05-07T01:01:37;3.53;;;1.85;;
51216;SDS011;37283;49.760;8.648;2023-05-07T01:04:04;3.03;;;1.80;;
51216;SDS011;37283;49.760;8.648;2023-05-07T01:06:31;3.35;;;2.00;;
51216;SDS011;37283;49.760;8.648;2023-05-07T01:08:58;4.28;;;1.90;;
51216;SDS011;37283;49.760;8.648;2023-05-07T01:11:25;4.45;;;1.70;;
51216;SDS011;37283;49.760;8.648;2023-05-07T01:13:52;4.22;;;1.90;;
51216;SDS011;37283;49.760;8.648;2023-05-07T01:16:19;4.13;;;1.80;;
51216;SDS011;37283;49.760;8.648;2023-05-07T01:18:47;2.75;;;1.70;;
51216;SDS011;37283;49.760;8.648;2023-05-07T01:21:15;3.70;;;1.75;;
51216;SDS011;37283;49.760;8.648;2023-05-07T01:23:43;4.80;;;2.05;;
51216;SDS011;37283;49.760;8.648;2023-05-07T01:26:11;3.88;;;1.70;;
51216;SDS011;37283;49.760;8.648;2023-05-07T01:28:38;3.00;;;1.63;;
51216;SDS011;37283;49.760;8.648;2023-05-07T01:31:05;6.20;;;1.58;;
51216;SDS011;37283;49.760;8.648;2023-05-07T01:33:34;3.88;;;1.52;;
51216;SDS011;37283;49.760;8.648;2023-05-07T01:36:01;3.88;;;1.75;;
51216;SDS011;37283;49.760;8.648;2023-05-07T01:38:32;4.28;;;1.60;;
51216;SDS011;37283;49.760;8.648;2023-05-07T01:40:59;3.25;;;1.50;;
51216;SDS011;37283;49.760;8.648;2023-05-07T01:43:26;5.80;;;1.75;;
51216;SDS011;37283;49.760;8.648;2023-05-07T01:45:58;3.42;;;1.63;;
51216;SDS011;37283;49.760;8.648;2023-05-07T01:48:26;3.05;;;1.40;;
51216;SDS011;37283;49.760;8.648;2023-05-07T01:50:53;2.70;;;1.50;;
51216;SDS011;37283;49.760;8.648;2023-05-07T01:53:19;4.20;;;1.70;;
51216;SDS011;37283;49.760;8.648;2023-05-07T01:55:46;5.72;;;1.58;;
51216;SDS011;37283;49.760;8.648;2023-05-07T01:58:13;2.30;;;1.50;;
51216;SDS011;37283;49.760;8.648;2023-05-07T02:00:40;4.60;;;1.52;;
51216;SDS011;37283;49.760;8.648;2023-05-07T02:03:07;4.75;;;1.67;;
51216;SDS011;37283;49.760;8.648;2023-05-07T02:05:42;5.10;;;1.80;;
51216;SDS011;37283;49.760;8.648;2023-05-07T02:08:24;3.22;;;1.40;;
51216;SDS011;37283;49.760;8.648;2023-05-07T02:10:50;3.65;;;1.40;;
51216;SDS011;37283;49.760;8.648;2023-05-07T02:13:17;5.50;;;1.60;;
51216;SDS011;37283;49.760;8.648;2023-05-07T02:15:44;2.42;;;1.42;;
51216;SDS011;37283;49.760;8.648;2023-05-07T02:20:39;3.00;;;1.40;;
51216;SDS011;37283;49.760;8.648;2023-05-07T02:23:06;3.25;;;1.20;;
51216;SDS011;37283;49.760;8.648;2023-05-07T02:25:32;3.13;;;1.63;;
51216;SDS011;37283;49.760;8.648;2023-05-07T02:27:59;4.85;;;1.30;;
51216;SDS011;37283;49.760;8.648;2023-05-07T02:30:38;4.73;;;1.50;;
51216;SDS011;37283;49.760;8.648;2023-05-07T02:33:04;4.07;;;1.70;;
51216;SDS011;37283;49.760;8.648;2023-05-07T02:35:31;3.95;;;1.50;;
51216;SDS011;37283;49.760;8.648;2023-05-07T02:37:58;3.58;;;1.60;;
51216;SDS011;37283;49.760;8.648;2023-05-07T02:40:25;3.15;;;1.33;;
51216;SDS011;37283;49.760;8.648;2023-05-07T02:42:51;3.33;;;1.52;;
51216;SDS011;37283;49.760;8.648;2023-05-07T02:45:18;1.80;;;1.10;;
51216;SDS011;37283;49.760;8.648;2023-05-07T02:47:45;5.57;;;1.40;;
51216;SDS011;37283;49.760;8.648;2023-05-07T02:50:12;2.60;;;1.27;;
51216;SDS011;37283;49.760;8.648;2023-05-07T02:52:39;6.03;;;1.33;;
51216;SDS011;37283;49.760;8.648;2023-05-07T02:55:06;6.90;;;1.40;;
51216;SDS011;37283;49.760;8.648;2023-05-07T02:57:32;3.47;;;1.40;;
51216;SDS011;37283;49.760;8.648;2023-05-07T02:59:59;6.20;;;1.20;;
51216;SDS011;37283;49.760;8.648;2023-05-07T03:04:55;3.38;;;1.30;;
51216;SDS011;37283;49.760;8.648;2023-05-07T03:07:21;3.72;;;1.15;;
51216;SDS011;37283;49.760;8.648;2023-05-07T03:09:48;3.28;;;1.42;;
51216;SDS011;37283;49.760;8.648;2023-05-07T03:12:14;4.07;;;1.35;;
51216;SDS011;37283;49.760;8.648;2023-05-07T03:14:40;2.85;;;1.30;;
51216;SDS011;37283;49.760;8.648;2023-05-07T03:17:07;3.70;;;1.23;;
51216;SDS011;37283;49.760;8.648;2023-05-07T03:19:33;5.63;;;1.20;;
51216;SDS011;37283;49.760;8.648;2023-05-07T03:22:00;4.80;;;1.60;;
51216;SDS011;37283;49.760;8.648;2023-05-07T03:24:27;4.10;;;1.40;;
51216;SDS011;37283;49.760;8.648;2023-05-07T03:26:53;2.38;;;1.40;;
51216;SDS011;37283;49.760;8.648;2023-05-07T03:29:20;5.07;;;1.35;;
51216;SDS011;37283;49.760;8.648;2023-05-07T03:31:46;4.75;;;1.20;;
51216;SDS011;37283;49.760;8.648;2023-05-07T03:34:13;7.35;;;1.27;;
51216;SDS011;37283;49.760;8.648;2023-05-07T03:36:40;2.95;;;1.30;;
51216;SDS011;37283;49.760;8.648;2023-05-07T03:39:09;2.92;;;1.50;;
51216;SDS011;37283;49.760;8.648;2023-05-07T03:41:39;5.07;;;1.40;;
51216;SDS011;37283;49.760;8.648;2023-05-07T03:44:05;2.40;;;1.38;;
51216;SDS011;37283;49.760;8.648;2023-05-07T03:46:33;4.63;;;1.30;;
51216;SDS011;37283;49.760;8.648;2023-05-07T03:49:00;3.50;;;1.30;;
51216;SDS011;37283;49.760;8.648;2023-05-07T03:51:27;3.08;;;1.40;;
51216;SDS011;37283;49.760;8.648;2023-05-07T03:53:54;3.08;;;1.42;;
51216;SDS011;37283;49.760;8.648;2023-05-07T03:56:21;3.17;;;1.70;;
51216;SDS011;37283;49.760;8.648;2023-05-07T03:58:53;3.60;;;1.55;;
51216;SDS011;37283;49.760;8.648;2023-05-07T04:01:20;1.90;;;1.25;;
51216;SDS011;37283;49.760;8.648;2023-05-07T04:03:47;2.83;;;1.40;;
51216;SDS011;37283;49.760;8.648;2023-05-07T04:06:15;2.75;;;1.20;;
51216;SDS011;37283;49.760;8.648;2023-05-07T04:08:43;3.45;;;1.40;;
51216;SDS011;37283;49.760;8.648;2023-05-07T04:11:12;2.42;;;1.33;;
51216;SDS011;37283;49.760;8.648;2023-05-07T04:13:38;2.60;;;1.10;;
51216;SDS011;37283;49.760;8.648;2023-05-07T04:16:07;4.33;;;1.10;;
51216;SDS011;37283;49.760;8.648;2023-05-07T04:18:36;5.03;;;1.27;;
51216;SDS011;37283;49.760;8.648;2023-05-07T04:21:03;4.65;;;1.30;;
51216;SDS011;37283;49.760;8.648;2023-05-07T04:23:30;2.92;;;1.13;;
51216;SDS011;37283;49.760;8.648;2023-05-07T04:26:00;6.28;;;1.30;;
51216;SDS011;37283;49.760;8.648;2023-05-07T04:28:38;2.53;;;1.30;;
51216;SDS011;37283;49.760;8.648;2023-05-07T04:31:06;1.88;;;1.08;;
51216;SDS011;37283;49.760;8.648;2023-05-07T04:33:34;2.00;;;0.95;;
51216;SDS011;37283;49.760;8.648;2023-05-07T04:36:05;3.42;;;1.15;;
51216;SDS011;37283;49.760;8.648;2023-05-07T04:38:37;2.60;;;1.30;;
51216;SDS011;37283;49.760;8.648;2023-05-07T04:41:05;3.13;;;1.40;;
51216;SDS011;37283;49.760;8.648;2023-05-07T04:43:36;2.55;;;1.20;;
51216;SDS011;37283;49.760;8.648;2023-05-07T04:46:03;4.63;;;1.25;;
51216;SDS011;37283;49.760;8.648;2023-05-07T04:48:30;1.60;;;1.10;;
51216;SDS011;37283;49.760;8.648;2023-05-07T04:50:58;3.70;;;1.35;;
51216;SDS011;37283;49.760;8.648;2023-05-07T04:53:24;3.22;;;1.30;;
51216;SDS011;37283;49.760;8.648;2023-05-07T04:55:55;3.22;;;1.10;;
51216;SDS011;37283;49.760;8.648;2023-05-07T04:58:24;3.00;;;1.30;;
51216;SDS011;37283;49.760;8.648;2023-05-07T05:00:51;1.73;;;1.30;;
51216;SDS011;37283;49.760;8.648;2023-05-07T05:03:18;3.78;;;1.20;;
51216;SDS011;37283;49.760;8.648;2023-05-07T05:05:45;3.00;;;1.40;;
51216;SDS011;37283;49.760;8.648;2023-05-07T05:08:11;2.45;;;1.20;;
51216;SDS011;37283;49.760;8.648;2023-05-07T05:10:41;4.63;;;1.20;;
51216;SDS011;37283;49.760;8.648;2023-05-07T05:13:09;1.83;;;1.20;;
51216;SDS011;37283;49.760;8.648;2023-05-07T05:15:39;2.95;;;1.35;;
51216;SDS011;37283;49.760;8.648;2023-05-07T05:18:06;2.97;;;1.30;;
51216;SDS011;37283;49.760;8.648;2023-05-07T05:20:33;2.90;;;1.17;;
51216;SDS011;37283;49.760;8.648;2023-05-07T05:22:59;2.42;;;1.30;;
51216;SDS011;37283;49.760;8.648;2023-05-07T05:25:26;2.30;;;1.30;;
51216;SDS011;37283;49.760;8.648;2023-05-07T05:27:54;2.28;;;1.30;;
51216;SDS011;37283;49.760;8.648;2023-05-07T05:30:22;4.50;;;1.30;;
51216;SDS011;37283;49.760;8.648;2023-05-07T05:32:48;2.92;;;1.15;;
51216;SDS011;37283;49.760;8.648;2023-05-07T05:35:15;4.35;;;1.75;;
51216;SDS011;37283;49.760;8.648;2023-05-07T05:37:42;3.63;;;1.73;;
51216;SDS011;37283;49.760;8.648;2023-05-07T05:40:09;4.00;;;2.05;;
51216;SDS011;37283;49.760;8.648;2023-05-07T05:42:36;3.15;;;1.50;;
51216;SDS011;37283;49.760;8.648;2023-05-07T05:45:03;2.63;;;1.50;;
51216;SDS011;37283;49.760;8.648;2023-05-07T05:47:31;3.03;;;1.70;;
51216;SDS011;37283;49.760;8.648;2023-05-07T05:49:59;2.97;;;1.63;;
51216;SDS011;37283;49.760;8.648;2023-05-07T05:52:26;2.88;;;1.38;;
51216;SDS011;37283;49.760;8.648;2023-05-07T05:54:54;1.93;;;1.10;;
51216;SDS011;37283;49.760;8.648;2023-05-07T05:57:21;4.32;;;1.20;;
51216;SDS011;37283;49.760;8.648;2023-05-07T05:59:47;2.75;;;1.20;;
51216;SDS011;37283;49.760;8.648;2023-05-07T06:02:14;2.92;;;1.20;;
51216;SDS011;37283;49.760;8.648;2023-05-07T06:04:41;2.05;;;1.40;;
51216;SDS011;37283;49.760;8.648;2023-05-07T06:07:10;3.05;;;2.10;;
51216;SDS011;37283;49.760;8.648;2023-05-07T06:09:37;2.90;;;2.05;;
51216;SDS011;37283;49.760;8.648;2023-05-07T06:12:04;3.75;;;2.03;;
51216;SDS011;37283;49.760;8.648;2023-05-07T06:14:31;3.25;;;2.10;;
51216;SDS011;37283;49.760;8.648;2023-05-07T06:16:57;2.88;;;2.08;;
51216;SDS011;37283;49.760;8.648;2023-05-07T06:19:25;4.43;;;2.30;;
51216;SDS011;37283;49.760;8.648;2023-05-07T06:21:55;6.20;;;2.60;;
51216;SDS011;37283;49.760;8.648;2023-05-07T06:24:23;4.63;;;1.92;;
51216;SDS011;37283;49.760;8.648;2023-05-07T06:26:50;2.55;;;1.70;;
51216;SDS011;37283;49.760;8.648;2023-05-07T06:29:17;3.75;;;1.70;;
51216;SDS011;37283;49.760;8.648;2023-05-07T06:31:44;2.55;;;1.52;;
51216;SDS011;37283;49.760;8.648;2023-05-07T06:34:11;1.92;;;1.40;;
51216;SDS011;37283;49.760;8.648;2023-05-07T06:36:40;2.90;;;1.80;;
51216;SDS011;37283;49.760;8.648;2023-05-07T06:39:27;1.98;;;1.30;;
51216;SDS011;37283;49.760;8.648;2023-05-07T06:41:53;2.72;;;1.50;;
51216;SDS011;37283;49.760;8.648;2023-05-07T06:44:30;2.60;;;1.58;;
51216;SDS011;37283;49.760;8.648;2023-05-07T06:47:03;3.22;;;1.50;;
51216;SDS011;37283;49.760;8.648;2023-05-07T06:49:31;1.77;;;1.20;;
51216;SDS011;37283;49.760;8.648;2023-05-07T06:51:57;3.45;;;1.60;;
51216;SDS011;37283;49.760;8.648;2023-05-07T06:54:24;1.90;;;1.40;;
51216;SDS011;37283;49.760;8.648;2023-05-07T06:56:51;2.78;;;1.45;;
51216;SDS011;37283;49.760;8.648;2023-05-07T06:59:18;2.35;;;1.23;;
51216;SDS011;37283;49.760;8.648;2023-05-07T07:01:45;1.30;;;1.15;;
51216;SDS011;37283;49.760;8.648;2023-05-07T07:04:13;2.65;;;1.60;;
51216;SDS011;37283;49.760;8.648;2023-05-07T07:06:43;4.00;;;1.63;;
51216;SDS011;37283;49.760;8.648;2023-05-07T07:09:12;1.98;;;1.35;;
51216;SDS011;37283;49.760;8.648;2023-05-07T07:11:39;5.25;;;1.42;;
51216;SDS011;37283;49.760;8.648;2023-05-07T07:14:06;3.05;;;1.33;;
51216;SDS011;37283;49.760;8.648;2023-05-07T07:16:39;3.38;;;1.50;;
51216;SDS011;37283;49.760;8.648;2023-05-07T07:19:06;4.55;;;1.25;;
51216;SDS011;37283;49.760;8.648;2023-05-07T07:21:33;4.72;;;1.70;;
51216;SDS011;37283;49.760;8.648;2023-05-07T07:24:00;6.38;;;1.35;;
51216;SDS011;37283;49.760;8.648;2023-05-07T07:26:27;2.95;;;1.38;;
51216;SDS011;37283;49.760;8.648;2023-05-07T07:28:53;3.08;;;1.40;;
51216;SDS011;37283;49.760;8.648;2023-05-07T07:31:22;2.13;;;1.50;;
51216;SDS011;37283;49.760;8.648;2023-05-07T07:33:50;3.45;;;1.52;;
51216;SDS011;37283;49.760;8.648;2023-05-07T07:36:18;2.33;;;1.50;;
51216;SDS011;37283;49.760;8.648;2023-05-07T07:38:45;5.18;;;1.42;;
51216;SDS011;37283;49.760;8.648;2023-05-07T07:41:12;2.88;;;1.50;;
51216;SDS011;37283;49.760;8.648;2023-05-07T07:43:39;4.68;;;1.35;;
51216;SDS011;37283;49.760;8.648;2023-05-07T07:46:06;1.83;;;1.38;;
51216;SDS011;37283;49.760;8.648;2023-05-07T07:48:32;2.47;;;1.40;;
51216;SDS011;37283;49.760;8.648;2023-05-07T07:50:59;3.35;;;1.70;;
51216;SDS011;37283;49.760;8.648;2023-05-07T07:53:26;4.32;;;1.52;;
51216;SDS011;37283;49.760;8.648;2023-05-07T07:55:53;3.55;;;1.63;;
51216;SDS011;37283;49.760;8.648;2023-05-07T07:58:27;3.00;;;1.65;;
51216;SDS011;37283;49.760;8.648;2023-05-07T08:00:54;2.33;;;1.50;;
51216;SDS011;37283;49.760;8.648;2023-05-07T08:03:22;2.90;;;1.40;;
51216;SDS011;37283;49.760;8.648;2023-05-07T08:05:53;2.92;;;1.42;;
51216;SDS011;37283;49.760;8.648;2023-05-07T08:08:21;3.42;;;1.55;;
51216;SDS011;37283;49.760;8.648;2023-05-07T08:10:48;3.05;;;1.50;;
51216;SDS011;37283;49.760;8.648;2023-05-07T08:13:23;3.28;;;1.30;;
51216;SDS011;37283;49.760;8.648;2023-05-07T08:15:50;2.55;;;1.60;;
51216;SDS011;37283;49.760;8.648;2023-05-07T08:18:17;5.45;;;1.65;;
51216;SDS011;37283;49.760;8.648;2023-05-07T08:20:44;3.65;;;1.70;;
51216;SDS011;37283;49.760;8.648;2023-05-07T08:23:15;1.92;;;1.63;;
51216;SDS011;37283;49.760;8.648;2023-05-07T08:25:44;2.58;;;1.60;;
51216;SDS011;37283;49.760;8.648;2023-05-07T08:28:10;2.63;;;1.70;;
51216;SDS011;37283;49.760;8.648;2023-05-07T08:30:38;3.75;;;1.70;;
51216;SDS011;37283;49.760;8.648;2023-05-07T08:33:05;2.78;;;1.75;;
51216;SDS011;37283;49.760;8.648;2023-05-07T08:35:31;2.50;;;1.48;;
51216;SDS011;37283;49.760;8.648;2023-05-07T08:37:58;8.10;;;1.70;;
51216;SDS011;37283;49.760;8.648;2023-05-07T08:40:25;4.93;;;1.80;;
51216;SDS011;37283;49.760;8.648;2023-05-07T08:42:54;3.22;;;1.40;;
51216;SDS011;37283;49.760;8.648;2023-05-07T08:45:21;2.08;;;1.75;;
51216;SDS011;37283;49.760;8.648;2023-05-07T08:47:51;2.92;;;1.70;;
51216;SDS011;37283;49.760;8.648;2023-05-07T08:50:22;2.13;;;1.50;;
51216;SDS011;37283;49.760;8.648;2023-05-07T08:52:50;3.25;;;1.50;;
51216;SDS011;37283;49.760;8.648;2023-05-07T08:55:17;2.17;;;1.77;;
51216;SDS011;37283;49.760;8.648;2023-05-07T08:57:44;2.08;;;1.60;;
51216;SDS011;37283;49.760;8.648;2023-05-07T09:00:12;2.30;;;1.70;;
51216;SDS011;37283;49.760;8.648;2023-05-07T09:02:41;3.53;;;1.67;;
51216;SDS011;37283;49.760;8.648;2023-05-07T09:05:09;3.17;;;1.58;;
51216;SDS011;37283;49.760;8.648;2023-05-07T09:07:37;3.67;;;2.10;;
51216;SDS011;37283;49.760;8.648;2023-05-07T09:10:06;2.20;;;1.75;;
51216;SDS011;37283;49.760;8.648;2023-05-07T09:12:35;3.30;;;1.70;;
51216;SDS011;37283;49.760;8.648;2023-05-07T09:15:04;1.75;;;1.60;;
51216;SDS011;37283;49.760;8.648;2023-05-07T09:17:32;3.88;;;1.90;;
51216;SDS011;37283;49.760;8.648;2023-05-07T09:20:03;2.50;;;1.60;;
51216;SDS011;37283;49.760;8.648;2023-05-07T09:22:32;2.30;;;1.67;;
51216;SDS011;37283;49.760;8.648;2023-05-07T09:25:05;2.72;;;1.83;;
51216;SDS011;37283;49.760;8.648;2023-05-07T09:29:59;2.80;;;1.95;;
51216;SDS011;37283;49.760;8.648;2023-05-07T09:32:29;2.75;;;1.92;;
51216;SDS011;37283;49.760;8.648;2023-05-07T09:34:57;2.40;;;1.77;;
51216;SDS011;37283;49.760;8.648;2023-05-07T09:37:26;2.58;;;1.95;;
51216;SDS011;37283;49.760;8.648;2023-05-07T09:39:53;4.13;;;1.80;;
51216;SDS011;37283;49.760;8.648;2023-05-07T09:42:24;2.30;;;1.90;;
51216;SDS011;37283;49.760;8.648;2023-05-07T09:44:55;3.85;;;1.98;;
51216;SDS011;37283;49.760;8.648;2023-05-07T09:47:26;3.55;;;1.80;;
51216;SDS011;37283;49.760;8.648;2023-05-07T09:49:58;3.03;;;1.83;;
51216;SDS011;37283;49.760;8.648;2023-05-07T09:52:26;2.42;;;1.65;;
51216;SDS011;37283;49.760;8.648;2023-05-07T09:55:01;3.88;;;1.65;;
51216;SDS011;37283;49.760;8.648;2023-05-07T09:57:30;1.75;;;1.58;;
51216;SDS011;37283;49.760;8.648;2023-05-07T10:00:02;2.20;;;1.70;;
51216;SDS011;37283;49.760;8.648;2023-05-07T10:02:46;3.88;;;1.98;;
51216;SDS011;37283;49.760;8.648;2023-05-07T10:05:18;2.20;;;1.70;;
51216;SDS011;37283;49.760;8.648;2023-05-07T10:07:47;4.38;;;1.52;;
51216;SDS011;37283;49.760;8.648;2023-05-07T10:10:14;3.78;;;1.80;;
51216;SDS011;37283;49.760;8.648;2023-05-07T10:12:44;5.63;;;1.90;;
51216;SDS011;37283;49.760;8.648;2023-05-07T10:15:17;2.55;;;1.90;;
51216;SDS011;37283;49.760;8.648;2023-05-07T10:17:48;3.75;;;1.83;;
51216;SDS011;37283;49.760;8.648;2023-05-07T10:20:15;2.00;;;1.80;;
51216;SDS011;37283;49.760;8.648;2023-05-07T10:22:45;4.05;;;1.90;;
51216;SDS011;37283;49.760;8.648;2023-05-07T10:25:18;3.65;;;2.00;;
51216;SDS011;37283;49.760;8.648;2023-05-07T10:27:52;3.08;;;2.00;;
51216;SDS011;37283;49.760;8.648;2023-05-07T10:30:27;3.55;;;1.80;;
51216;SDS011;37283;49.760;8.648;2023-05-07T10:33:04;2.42;;;1.98;;
51216;SDS011;37283;49.760;8.648;2023-05-07T10:35:38;3.42;;;2.00;;
51216;SDS011;37283;49.760;8.648;2023-05-07T10:38:07;3.28;;;2.10;;
51216;SDS011;37283;49.760;8.648;2023-05-07T10:40:36;2.50;;;2.00;;
51216;SDS011;37283;49.760;8.648;2023-05-07T10:43:05;3.75;;;1.88;;
51216;SDS011;37283;49.760;8.648;2023-05-07T10:46:14;2.47;;;1.83;;
51216;SDS011;37283;49.760;8.648;2023-05-07T10:52:11;2.97;;;1.80;;
51216;SDS011;37283;49.760;8.648;2023-05-07T10:55:38;3.30;;;1.92;;
51216;SDS011;37283;49.760;8.648;2023-05-07T11:01:07;3.08;;;2.10;;
51216;SDS011;37283;49.760;8.648;2023-05-07T11:04:12;3.38;;;1.88;;
51216;SDS011;37283;49.760;8.648;2023-05-07T11:17:56;3.10;;;2.25;;
51216;SDS011;37283;49.760;8.648;2023-05-07T11:20:44;3.15;;;2.30;;
51216;SDS011;37283;49.760;8.648;2023-05-07T11:26:14;4.03;;;2.15;;
51216;SDS011;37283;49.760;8.648;2023-05-07T11:28:43;4.63;;;2.05;;
51216;SDS011;37283;49.760;8.648;2023-05-07T11:31:10;2.90;;;2.30;;
51216;SDS011;37283;49.760;8.648;2023-05-07T11:33:38;3.83;;;2.23;;
51216;SDS011;37283;49.760;8.648;2023-05-07T11:36:08;6.90;;;2.33;;
51216;SDS011;37283;49.760;8.648;2023-05-07T11:38:40;3.10;;;2.33;;
51216;SDS011;37283;49.760;8.648;2023-05-07T11:41:07;4.32;;;2.08;;
51216;SDS011;37283;49.760;8.648;2023-05-07T11:43:34;3.33;;;1.85;;
51216;SDS011;37283;49.760;8.648;2023-05-07T11:46:06;2.30;;;2.03;;
51216;SDS011;37283;49.760;8.648;2023-05-07T11:48:33;2.50;;;1.83;;
51216;SDS011;37283;49.760;8.648;2023-05-07T11:51:04;4.28;;;2.08;;
51216;SDS011;37283;49.760;8.648;2023-05-07T11:53:41;4.97;;;1.90;;
51216;SDS011;37283;49.760;8.648;2023-05-07T11:56:09;3.30;;;1.75;;
51216;SDS011;37283;49.760;8.648;2023-05-07T11:58:37;4.10;;;2.00;;
51216;SDS011;37283;49.760;8.648;2023-05-07T12:01:03;3.95;;;1.80;;
51216;SDS011;37283;49.760;8.648;2023-05-07T12:03:30;3.75;;;2.03;;
51216;SDS011;37283;49.760;8.648;2023-05-07T12:06:01;2.70;;;1.95;;
51216;SDS011;37283;49.760;8.648;2023-05-07T12:08:28;3.80;;;1.90;;
51216;SDS011;37283;49.760;8.648;2023-05-07T12:10:54;2.72;;;1.83;;
51216;SDS011;37283;49.760;8.648;2023-05-07T12:13:22;2.53;;;1.90;;
51216;SDS011;37283;49.760;8.648;2023-05-07T12:15:55;2.55;;;2.05;;
51216;SDS011;37283;49.760;8.648;2023-05-07T12:18:22;3.08;;;2.10;;
51216;SDS011;37283;49.760;8.648;2023-05-07T12:20:49;2.90;;;1.85;;
51216;SDS011;37283;49.760;8.648;2023-05-07T12:23:16;3.40;;;1.77;;
51216;SDS011;37283;49.760;8.648;2023-05-07T12:25:43;3.40;;;1.90;;
51216;SDS011;37283;49.760;8.648;2023-05-07T12:28:16;2.20;;;1.80;;
51216;SDS011;37283;49.760;8.648;2023-05-07T12:30:43;4.32;;;1.80;;
51216;SDS011;37283;49.760;8.648;2023-05-07T12:33:11;2.60;;;1.63;;
51216;SDS011;37283;49.760;8.648;2023-05-07T12:35:39;3.60;;;1.88;;
51216;SDS011;37283;49.760;8.648;2023-05-07T12:38:13;4.80;;;2.00;;
51216;SDS011;37283;49.760;8.648;2023-05-07T12:40:43;1.70;;;1.60;;
51216;SDS011;37283;49.760;8.648;2023-05-07T12:45:42;4.90;;;1.90;;
51216;SDS011;37283;49.760;8.648;2023-05-07T12:48:09;1.85;;;1.67;;
51216;SDS011;37283;49.760;8.648;2023-05-07T12:50:36;4.95;;;1.63;;
51216;SDS011;37283;49.760;8.648;2023-05-07T12:53:05;2.72;;;1.50;;
51216;SDS011;37283;49.760;8.648;2023-05-07T12:55:40;2.22;;;1.60;;
51216;SDS011;37283;49.760;8.648;2023-05-07T12:58:20;2.92;;;1.67;;
51216;SDS011;37283;49.760;8.648;2023-05-07T13:00:58;2.28;;;1.75;;
51216;SDS011;37283;49.760;8.648;2023-05-07T13:03:27;2.03;;;1.65;;
51216;SDS011;37283;49.760;8.648;2023-05-07T13:05:56;4.03;;;1.90;;
51216;SDS011;37283;49.760;8.648;2023-05-07T13:08:25;9.82;;;1.73;;
51216;SDS011;37283;49.760;8.648;2023-05-07T13:10:53;3.38;;;1.77;;
51216;SDS011;37283;49.760;8.648;2023-05-07T13:13:20;3.28;;;1.40;;
51216;SDS011;37283;49.760;8.648;2023-05-07T13:15:47;2.83;;;1.60;;
51216;SDS011;37283;49.760;8.648;2023-05-07T13:18:14;3.55;;;1.80;;
51216;SDS011;37283;49.760;8.648;2023-05-07T13:20:40;3.28;;;1.55;;
51216;SDS011;37283;49.760;8.648;2023-05-07T13:23:07;3.00;;;1.50;;
51216;SDS011;37283;49.760;8.648;2023-05-07T13:25:33;3.10;;;1.90;;
51216;SDS011;37283;49.760;8.648;2023-05-07T13:28:02;3.85;;;1.70;;
51216;SDS011;37283;49.760;8.648;2023-05-07T13:30:36;2.50;;;1.70;;
51216;SDS011;37283;49.760;8.648;2023-05-07T13:33:02;3.55;;;1.90;;
51216;SDS011;37283;49.760;8.648;2023-05-07T13:35:29;2.70;;;1.60;;
51216;SDS011;37283;49.760;8.648;2023-05-07T13:37:56;2.75;;;1.83;;
51216;SDS011;37283;49.760;8.648;2023-05-07T13:40:22;1.92;;;1.70;;
51216;SDS011;37283;49.760;8.648;2023-05-07T13:42:49;1.60;;;1.50;;
51216;SDS011;37283;49.760;8.648;2023-05-07T13:45:19;2.80;;;1.80;;
51216;SDS011;37283;49.760;8.648;2023-05-07T13:47:46;3.80;;;1.60;;
51216;SDS011;37283;49.760;8.648;2023-05-07T13:50:13;2.95;;;1.80;;
51216;SDS011;37283;49.760;8.648;2023-05-07T13:52:40;5.25;;;2.10;;
51216;SDS011;37283;49.760;8.648;2023-05-07T13:55:12;2.92;;;1.65;;
51216;SDS011;37283;49.760;8.648;2023-05-07T13:57:38;2.47;;;1.90;;
51216;SDS011;37283;49.760;8.648;2023-05-07T14:00:05;2.45;;;1.85;;
51216;SDS011;37283;49.760;8.648;2023-05-07T14:02:40;3.90;;;1.80;;
51216;SDS011;37283;49.760;8.648;2023-05-07T14:05:06;2.92;;;1.70;;
51216;SDS011;37283;49.760;8.648;2023-05-07T14:07:33;2.72;;;1.85;;
51216;SDS011;37283;49.760;8.648;2023-05-07T14:10:00;3.88;;;2.03;;
51216;SDS011;37283;49.760;8.648;2023-05-07T14:12:26;2.05;;;1.60;;
51216;SDS011;37283;49.760;8.648;2023-05-07T14:14:53;3.92;;;2.20;;
51216;SDS011;37283;49.760;8.648;2023-05-07T14:17:20;2.67;;;1.77;;
51216;SDS011;37283;49.760;8.648;2023-05-07T14:19:49;2.92;;;2.22;;
51216;SDS011;37283;49.760;8.648;2023-05-07T14:22:15;2.38;;;1.90;;
51216;SDS011;37283;49.760;8.648;2023-05-07T14:24:42;3.03;;;2.00;;
51216;SDS011;37283;49.760;8.648;2023-05-07T14:27:11;3.33;;;1.90;;
51216;SDS011;37283;49.760;8.648;2023-05-07T14:29:38;3.13;;;2.05;;
51216;SDS011;37283;49.760;8.648;2023-05-07T14:32:04;2.80;;;1.90;;
51216;SDS011;37283;49.760;8.648;2023-05-07T14:34:31;2.75;;;2.00;;
51216;SDS011;37283;49.760;8.648;2023-05-07T14:36:58;2.72;;;1.90;;
51216;SDS011;37283;49.760;8.648;2023-05-07T14:39:25;2.88;;;1.80;;
51216;SDS011;37283;49.760;8.648;2023-05-07T14:41:52;3.15;;;2.15;;
51216;SDS011;37283;49.760;8.648;2023-05-07T14:44:20;2.75;;;1.77;;
51216;SDS011;37283;49.760;8.648;2023-05-07T14:46:47;2.88;;;1.95;;
51216;SDS011;37283;49.760;8.648;2023-05-07T14:49:14;3.78;;;1.90;;
51216;SDS011;37283;49.760;8.648;2023-05-07T14:51:44;3.92;;;1.92;;
51216;SDS011;37283;49.760;8.648;2023-05-07T14:54:11;2.15;;;1.80;;
51216;SDS011;37283;49.760;8.648;2023-05-07T14:56:38;4.80;;;1.90;;
51216;SDS011;37283;49.760;8.648;2023-05-07T14:59:05;3.80;;;1.92;;
51216;SDS011;37283;49.760;8.648;2023-05-07T15:01:31;3.95;;;1.92;;
51216;SDS011;37283;49.760;8.648;2023-05-07T15:03:58;2.60;;;1.83;;
51216;SDS011;37283;49.760;8.648;2023-05-07T15:06:24;3.00;;;1.90;;
51216;SDS011;37283;49.760;8.648;2023-05-07T15:08:51;3.47;;;1.90;;
51216;SDS011;37283;49.760;8.648;2023-05-07T15:11:18;3.03;;;2.00;;
51216;SDS011;37283;49.760;8.648;2023-05-07T15:13:44;4.05;;;2.00;;
51216;SDS011;37283;49.760;8.648;2023-05-07T15:16:10;3.63;;;2.10;;
51216;SDS011;37283;49.760;8.648;2023-05-07T15:18:37;3.75;;;2.03;;
51216;SDS011;37283;49.760;8.648;2023-05-07T15:21:04;3.53;;;2.20;;
51216;SDS011;37283;49.760;8.648;2023-05-07T15:23:32;3.17;;;1.77;;
51216;SDS011;37283;49.760;8.648;2023-05-07T15:25:58;3.03;;;1.98;;